createdAt,value
2022-10-05T00:04:53.976Z,14.18
2022-10-05T00:09:59.287Z,14.21
2022-10-05T00:15:01.769Z,14.14
2022-10-05T00:20:17.193Z,13.96
2022-10-05T00:25:21.771Z,14.16
2022-10-05T00:30:25.700Z,14.23
2022-10-05T00:35:29.265Z,14.27
2022-10-05T00:40:36.926Z,14.19
2022-10-05T00:45:52.175Z,14.10
2022-10-05T00:51:27.152Z,14.10
2022-10-05T00:56:37.352Z,14.17
2022-10-05T01:01:55.697Z,14.14
2022-10-05T01:07:02.902Z,14.00
2022-10-05T01:12:24.772Z,14.21
2022-10-05T01:17:36.527Z,13.99
2022-10-05T01:23:13.612Z,14.04
2022-10-05T01:28:47.899Z,13.98
2022-10-05T01:34:06.703Z,13.97
2022-10-05T01:39:40.757Z,13.89
2022-10-05T01:44:58.384Z,13.91
2022-10-05T01:50:11.652Z,13.99
2022-10-05T01:55:27.044Z,13.98
2022-10-05T02:00:32.749Z,13.85
2022-10-05T02:06:00.841Z,13.87
2022-10-05T02:11:07.456Z,13.85
2022-10-05T02:16:28.405Z,13.86
2022-10-05T02:21:33.541Z,13.89
2022-10-05T02:26:37.449Z,13.79
2022-10-05T02:31:50.864Z,13.81
2022-10-05T02:37:34.199Z,13.93
2022-10-05T02:42:54.517Z,13.84
2022-10-05T02:48:20.407Z,13.90
2022-10-05T02:53:55.518Z,13.90
2022-10-05T02:58:56.864Z,13.95
2022-10-05T03:04:10.116Z,13.81
2022-10-05T03:09:13.893Z,13.89
2022-10-05T03:14:30.577Z,13.98
2022-10-05T03:19:47.253Z,13.84
2022-10-05T03:25:22.193Z,13.86
2022-10-05T03:30:26.521Z,13.83
2022-10-05T03:35:30.669Z,13.89
2022-10-05T03:40:41.603Z,13.82
2022-10-05T03:45:57.428Z,13.97
2022-10-05T03:51:19.972Z,13.98
2022-10-05T03:56:38.495Z,14.00
2022-10-05T04:01:45.530Z,14.00
2022-10-05T04:06:52.920Z,14.07
2022-10-05T04:11:57.360Z,14.03
2022-10-05T04:17:01.191Z,13.92
2022-10-05T04:22:23.155Z,14.10
2022-10-05T04:27:35.912Z,13.95
2022-10-05T04:32:42.032Z,13.89
2022-10-05T04:37:55.277Z,14.00
2022-10-05T04:43:19.461Z,14.01
2022-10-05T04:48:38.716Z,14.05
2022-10-05T04:53:50.580Z,14.03
2022-10-05T04:59:05.432Z,14.05
2022-10-05T05:04:25.567Z,14.03
2022-10-05T05:10:11.096Z,14.09
2022-10-05T05:15:27.533Z,14.06
2022-10-05T05:20:56.081Z,14.09
2022-10-05T05:26:03.569Z,14.04
2022-10-05T05:31:34.615Z,13.96
2022-10-05T05:36:57.904Z,13.99
2022-10-05T05:42:32.202Z,14.03
2022-10-05T05:47:37.761Z,14.02
2022-10-05T05:52:49.169Z,14.11
2022-10-05T05:57:56.663Z,14.00
2022-10-05T06:03:11.454Z,14.02
2022-10-05T06:08:43.308Z,14.04
2022-10-05T06:13:46.006Z,14.05
2022-10-05T06:18:57.222Z,13.99
2022-10-05T06:24:01.258Z,14.06
2022-10-05T06:29:08.995Z,14.03
2022-10-05T06:34:27.675Z,14.07
2022-10-05T06:39:40.239Z,14.09
2022-10-05T06:45:04.879Z,14.14
2022-10-05T06:50:35.243Z,14.25
2022-10-05T06:55:54.155Z,14.22
2022-10-05T07:01:01.700Z,14.31
2022-10-05T07:06:15.202Z,14.23
2022-10-05T07:11:43.332Z,14.24
2022-10-05T07:16:56.442Z,14.36
2022-10-05T07:22:19.740Z,14.45
2022-10-05T07:27:25.279Z,14.34
2022-10-05T07:33:12.103Z,14.51
2022-10-05T07:38:26.368Z,14.47
2022-10-05T07:44:02.174Z,14.41
2022-10-05T07:49:19.699Z,14.58
2022-10-05T07:54:24.038Z,14.75
2022-10-05T07:59:34.463Z,14.81
2022-10-05T08:04:53.379Z,14.80
2022-10-05T08:10:42.507Z,14.83
2022-10-05T08:15:50.477Z,14.84
2022-10-05T08:20:57.880Z,14.91
2022-10-05T08:26:11.926Z,14.91
2022-10-05T08:31:25.102Z,14.79
2022-10-05T08:36:56.318Z,14.92
2022-10-05T08:42:17.664Z,15.03
2022-10-05T08:47:46.795Z,15.00
2022-10-05T08:53:12.165Z,15.03
2022-10-05T08:58:44.762Z,15.05
2022-10-05T09:04:19.864Z,15.28
2022-10-05T09:09:52.023Z,15.24
2022-10-05T09:15:24.266Z,15.19
2022-10-05T09:20:41.426Z,15.19
2022-10-05T09:26:09.240Z,15.31
2022-10-05T09:31:37.164Z,15.51
2022-10-05T09:36:47.775Z,15.48
2022-10-05T09:41:58.330Z,15.60
2022-10-05T09:47:07.458Z,15.62
2022-10-05T09:52:46.755Z,15.67
2022-10-05T09:58:12.450Z,15.86
2022-10-05T10:03:21.135Z,15.86
2022-10-05T10:08:44.194Z,15.92
2022-10-05T10:13:53.406Z,16.06
2022-10-05T10:19:24.178Z,16.08
2022-10-05T10:25:10.799Z,16.08
2022-10-05T10:30:39.255Z,16.26
2022-10-05T10:36:08.936Z,16.18
2022-10-05T10:41:30.279Z,16.48
2022-10-05T10:47:05.753Z,16.50
2022-10-05T10:52:31.879Z,16.61
2022-10-05T10:58:21.573Z,16.54
2022-10-05T11:03:28.728Z,16.55
2022-10-05T11:08:36.760Z,16.58
2022-10-05T11:14:02.716Z,16.51
2022-10-05T11:19:39.990Z,16.65
2022-10-05T11:24:51.005Z,16.74
2022-10-05T11:30:19.951Z,16.63
2022-10-05T11:35:34.452Z,16.58
2022-10-05T11:40:41.725Z,16.80
2022-10-05T11:46:08.217Z,16.65
2022-10-05T11:51:19.282Z,16.78
2022-10-05T11:56:33.707Z,16.74
2022-10-05T12:01:52.628Z,16.65
2022-10-05T12:07:00.180Z,16.60
2022-10-05T12:12:17.497Z,16.57
2022-10-05T12:17:37.836Z,16.50
2022-10-05T12:22:46.528Z,16.59
2022-10-05T12:27:53.289Z,16.42
2022-10-05T12:33:14.281Z,16.36
2022-10-05T12:38:41.446Z,16.12
2022-10-05T12:44:06.431Z,16.18
2022-10-05T12:49:13.952Z,16.15
2022-10-05T12:54:30.451Z,16.15
2022-10-05T12:59:50.599Z,16.10
2022-10-05T13:05:13.392Z,16.09
2022-10-05T13:10:45.048Z,16.00
2022-10-05T13:15:58.177Z,15.96
2022-10-05T13:21:13.298Z,15.96
2022-10-05T13:26:21.926Z,15.95
2022-10-05T13:31:31.035Z,15.88
2022-10-05T13:36:53.711Z,15.95
2022-10-05T13:42:04.695Z,15.97
2022-10-05T13:47:24.190Z,15.85
2022-10-05T13:53:04.089Z,15.86
2022-10-05T13:58:11.570Z,15.86
2022-10-05T14:03:35.088Z,15.84
2022-10-05T14:08:49.432Z,15.84
2022-10-05T14:14:00.365Z,15.89
2022-10-05T14:19:04.859Z,15.96
2022-10-05T14:24:43.193Z,15.95
2022-10-05T14:30:03.353Z,15.98
2022-10-05T14:35:14.004Z,16.13
2022-10-05T14:40:24.714Z,16.10
2022-10-05T14:45:33.282Z,16.06
2022-10-05T14:51:10.606Z,16.04
2022-10-05T14:56:44.149Z,16.08
2022-10-05T15:01:58.959Z,16.07
2022-10-05T15:07:38.977Z,16.08
2022-10-05T15:12:49.640Z,15.92
2022-10-05T15:18:00.816Z,15.99
2022-10-05T15:23:24.990Z,15.81
2022-10-05T15:28:38.985Z,15.96
2022-10-05T15:34:03.846Z,15.94
2022-10-05T15:39:48.201Z,15.91
2022-10-05T15:45:06.344Z,15.90
2022-10-05T15:50:26.263Z,15.89
2022-10-05T15:55:32.120Z,15.87
2022-10-05T16:00:44.366Z,15.86
2022-10-05T16:06:04.201Z,15.77
2022-10-05T16:11:16.993Z,15.70
2022-10-05T16:16:30.101Z,15.63
2022-10-05T16:21:45.837Z,15.72
2022-10-05T16:27:00.642Z,15.76
2022-10-05T16:32:19.069Z,15.65
2022-10-05T16:37:46.565Z,15.62
2022-10-05T16:43:25.662Z,15.61
2022-10-05T16:48:59.457Z,15.55
2022-10-05T16:54:22.669Z,15.53
2022-10-05T16:59:26.930Z,15.51
2022-10-05T17:04:54.426Z,15.41
2022-10-05T17:10:18.044Z,15.51
2022-10-05T17:16:04.148Z,15.49
2022-10-05T17:21:15.369Z,15.54
2022-10-05T17:26:22.927Z,15.52
2022-10-05T17:31:28.114Z,15.51
2022-10-05T17:36:50.372Z,15.52
2022-10-05T17:41:52.003Z,15.38
2022-10-05T17:46:58.484Z,15.44
2022-10-05T17:52:23.080Z,15.50
2022-10-05T17:57:27.772Z,15.60
2022-10-05T18:02:36.351Z,15.62
2022-10-05T18:07:40.318Z,15.59
2022-10-05T18:12:45.278Z,15.58
2022-10-05T18:17:50.616Z,15.57
2022-10-05T18:22:55.658Z,15.55
2022-10-05T18:28:21.497Z,15.54
2022-10-05T18:33:44.527Z,15.58
2022-10-05T18:38:53.050Z,15.56
2022-10-05T18:44:12.034Z,15.37
2022-10-05T18:49:19.867Z,15.57
2022-10-05T18:55:01.997Z,15.66
2022-10-05T19:00:06.786Z,15.62
2022-10-05T19:05:47.028Z,15.73
2022-10-05T19:10:57.648Z,15.70
2022-10-05T19:16:25.750Z,15.73
2022-10-05T19:21:46.838Z,15.86
2022-10-05T19:27:22.017Z,15.81
2022-10-05T19:32:48.880Z,15.92
2022-10-05T19:38:05.759Z,15.90
2022-10-05T19:43:35.448Z,15.97
2022-10-05T19:48:48.413Z,16.03
2022-10-05T19:53:51.384Z,16.08
2022-10-05T19:58:57.559Z,16.11
2022-10-05T20:03:59.600Z,16.15
2022-10-05T20:09:19.553Z,16.22
2022-10-05T20:14:30.284Z,16.36
2022-10-05T20:19:50.512Z,16.29
2022-10-05T20:24:54.868Z,16.42
2022-10-05T20:29:57.406Z,16.43
2022-10-05T20:35:02.375Z,16.48
2022-10-05T20:40:05.160Z,16.53
2022-10-05T20:45:07.154Z,16.53
2022-10-05T20:50:10.356Z,16.31
2022-10-05T20:55:12.312Z,16.13
2022-10-05T21:00:14.027Z,15.98
2022-10-05T21:05:18.146Z,15.92
2022-10-05T21:10:19.919Z,15.89
2022-10-05T21:15:23.278Z,15.93
2022-10-05T21:20:24.788Z,15.88
2022-10-05T21:25:26.950Z,16.07
2022-10-05T21:30:28.423Z,16.11
2022-10-05T21:35:30.023Z,16.08
2022-10-05T21:40:31.516Z,16.05
2022-10-05T21:45:33.032Z,16.08
2022-10-05T21:50:35.273Z,16.06
2022-10-05T21:55:41.271Z,15.74
2022-10-05T22:00:42.915Z,15.20
2022-10-05T22:05:44.511Z,14.99
2022-10-05T22:10:46.121Z,14.90
2022-10-05T22:15:47.635Z,14.79
2022-10-05T22:20:49.811Z,14.61
2022-10-05T22:25:53.867Z,14.60
2022-10-05T22:30:55.946Z,14.48
2022-10-05T22:35:59.420Z,14.48
2022-10-05T22:41:00.964Z,14.49
2022-10-05T22:46:08.565Z,14.43
2022-10-05T22:51:10.354Z,14.49
2022-10-05T22:56:14.147Z,14.49
2022-10-05T23:01:17.230Z,14.39
2022-10-05T23:06:20.692Z,14.47
2022-10-05T23:11:27.685Z,14.45
2022-10-05T23:16:29.899Z,14.45
2022-10-05T23:21:31.672Z,14.41
2022-10-05T23:26:33.834Z,14.40
2022-10-05T23:31:36.883Z,14.45
2022-10-05T23:36:38.447Z,14.34
2022-10-05T23:41:40.476Z,14.17
2022-10-05T23:46:42.028Z,13.89
2022-10-05T23:51:44.843Z,13.92
2022-10-05T23:56:46.439Z,13.85
